Portada
METAR-TAF:

METAR-TAF

Aeroports :

Santa Ana del Yacuma, Bolívia

latitud: 13-46S, longitud: 065-26W, altitud: 144 m

Observació

L'informe es va fer fa 35 minuts, a les 12:00 UTC
Vent calma
Temperatura 24°C
Humitat 94%
Pressió 1010 hPa
Visibilitat: 6000 m
Núvols disperses a una alçada de 600 ft
Cel ennuvolat a una alçada de 1500 ft
Escasses núvols a una alçada de 2300 ft, Cumulonimbus.
Cel cobert a una alçada de 7000 ft
xàfecs en les proximitats

METAR: SLSA 131200Z 00000KT 6000 VCSH SCT006 BKN015 FEW023CB OVC070 24/23 Q1010

Hora: 08:35 (12:35 UTC)


TAF: manca

Observacions i pronòstics meteorològics de més de 4000 aeroports (METAR i TAF).

Les estacions disponibles són els punts grocs i vermells al mapa.

Posi el ratolí al punt desitjat per veure el nom de l'estació.

Feu clic per veure les observacions i els pronòstics meteorològics.

Per canviar el mapa: feu clic els botons verds amb una creu de color negre per apropar; al botó verd amb un guió per allunyar la imatge; o en les fletxes verdes per a mapes adjacents.


METAR-TAF: